Time;durP1;ratioP1;P1;durP2;ratioP2;P2;SDS_P1;SDS_P2;PMS_P1;PMS_P2;Temp;Humidity;BMP_temperature;BMP_pressure;BME280_temperature;BME280_humidity;BME280_pressure;Samples;Min_cycle;Max_cycle;Signal;HPM_P1;HPM_P2
2022/10/07 07:07:19;;;;;;;2.75;1.83;;;;;;;;;;10608174;27;20077;-83
2022/10/07 07:12:24;;;;;;;3.70;1.55;;;;;;;;;;10562245;28;20035;-81
2022/10/07 07:17:25;;;;;;;6.15;2.05;;;;;;;;;;10579338;28;20020;-81
2022/10/07 07:22:26;;;;;;;5.57;2.28;;;;;;;;;;10581991;28;20019;-82
2022/10/07 07:27:28;;;;;;;5.28;2.50;;;;;;;;;;10581333;28;20024;-84
2022/10/07 07:32:32;;;;;;;5.78;3.22;;;;;;;;;;10579632;28;20027;-83
2022/10/07 07:37:35;;;;;;;6.25;3.40;;;;;;;;;;10579736;28;20030;-82
2022/10/07 07:42:58;;;;;;;8.38;3.30;;;;;;;;;;10596886;28;20031;-82
2022/10/07 07:48:00;;;;;;;7.95;3.40;;;;;;;;;;10578448;28;20470;-83
2022/10/07 07:53:03;;;;;;;8.85;4.25;;;;;;;;;;10596896;28;20087;-84
2022/10/07 07:58:04;;;;;;;8.02;3.22;;;;;;;;;;10577644;28;20487;-84
2022/10/07 08:08:45;;;;;;;8.07;3.40;;;;;;;;;;10589769;28;20035;-85
2022/10/07 08:19:30;;;;;;;7.30;4.03;;;;;;;;;;10594519;28;20040;-85
2022/10/07 08:35:58;;;;;;;5.55;2.70;;;;;;;;;;10630246;27;20023;-85
2022/10/07 08:41:27;;;;;;;7.03;2.83;;;;;;;;;;10617741;27;20027;-85
2022/10/07 08:52:20;;;;;;;8.20;2.83;;;;;;;;;;10635127;27;20067;-86
2022/10/07 08:57:45;;;;;;;7.65;3.05;;;;;;;;;;10618263;27;20031;-84
2022/10/07 09:03:06;;;;;;;8.13;3.25;;;;;;;;;;10609334;27;20106;-83
2022/10/07 09:08:27;;;;;;;7.03;2.85;;;;;;;;;;10626019;27;20182;-84
2022/10/07 09:13:30;;;;;;;7.43;3.00;;;;;;;;;;10619248;27;20043;-83
2022/10/07 09:18:52;;;;;;;7.15;2.72;;;;;;;;;;10616991;27;20114;-83
2022/10/07 09:30:03;;;;;;;6.15;3.13;;;;;;;;;;10634465;27;20474;-83
2022/10/07 09:35:51;;;;;;;11.07;3.35;;;;;;;;;;10616318;27;20031;-83
2022/10/07 09:47:04;;;;;;;7.32;2.88;;;;;;;;;;10426447;28;20611;-83
2022/10/07 09:57:43;;;;;;;10.32;5.20;;;;;;;;;;10426096;28;20037;-83
2022/10/07 10:02:49;;;;;;;6.30;3.30;;;;;;;;;;10557793;28;20031;-83
2022/10/07 10:08:16;;;;;;;6.82;3.50;;;;;;;;;;10622489;28;20028;-84
2022/10/07 10:13:48;;;;;;;7.45;3.42;;;;;;;;;;10625041;28;20038;-83
2022/10/07 10:19:01;;;;;;;11.25;4.00;;;;;;;;;;10624313;28;20039;-81
2022/10/07 10:24:05;;;;;;;7.82;3.10;;;;;;;;;;10643809;28;20415;-83
2022/10/07 10:29:21;;;;;;;11.18;4.50;;;;;;;;;;10627917;28;20023;-83
2022/10/07 10:34:41;;;;;;;7.90;3.65;;;;;;;;;;10637616;28;20095;-82
2022/10/07 10:39:50;;;;;;;7.88;3.25;;;;;;;;;;10636454;28;20099;-82
2022/10/07 10:45:02;;;;;;;9.23;4.20;;;;;;;;;;10624153;27;20019;-81
2022/10/07 10:50:24;;;;;;;6.30;3.05;;;;;;;;;;10623618;27;20027;-83
2022/10/07 10:55:47;;;;;;;7.68;3.13;;;;;;;;;;10621097;27;20530;-83
2022/10/07 11:01:01;;;;;;;8.18;3.38;;;;;;;;;;10637849;27;20076;-82
2022/10/07 11:06:06;;;;;;;6.38;2.88;;;;;;;;;;10619796;27;20023;-83
2022/10/07 11:11:16;;;;;;;8.48;2.90;;;;;;;;;;10618153;27;20031;-82
2022/10/07 11:16:37;;;;;;;8.50;2.70;;;;;;;;;;10600166;27;20135;-81
2022/10/07 11:21:53;;;;;;;8.10;3.75;;;;;;;;;;10617764;27;20752;-82
2022/10/07 11:27:19;;;;;;;8.40;2.75;;;;;;;;;;10632619;27;20508;-81
2022/10/07 11:32:56;;;;;;;7.55;2.60;;;;;;;;;;10636344;27;20094;-82
2022/10/07 11:38:16;;;;;;;7.25;2.53;;;;;;;;;;10588002;27;20130;-81
2022/10/07 11:43:55;;;;;;;5.57;2.10;;;;;;;;;;10614813;27;20034;-81
2022/10/07 11:49:36;;;;;;;6.80;2.45;;;;;;;;;;10420737;28;20029;-82
2022/10/07 11:55:12;;;;;;;8.68;2.58;;;;;;;;;;10615015;27;20506;-83
2022/10/07 12:00:55;;;;;;;5.15;1.95;;;;;;;;;;10605022;27;20043;-82
2022/10/07 12:06:18;;;;;;;9.32;2.60;;;;;;;;;;10612876;27;20035;-85
2022/10/07 12:11:40;;;;;;;5.78;2.28;;;;;;;;;;10633706;27;20035;-81
2022/10/07 12:28:22;;;;;;;5.88;2.33;;;;;;;;;;10604431;27;20035;-82
2022/10/07 12:33:42;;;;;;;9.00;2.97;;;;;;;;;;10542619;28;20381;-82
2022/10/07 12:39:08;;;;;;;7.18;2.00;;;;;;;;;;10525037;28;20072;-81
2022/10/07 12:50:37;;;;;;;8.20;2.20;;;;;;;;;;10541970;28;20024;-80
2022/10/07 13:13:20;;;;;;;9.40;2.40;;;;;;;;;;10501853;28;20025;-82
2022/10/07 13:24:35;;;;;;;5.45;1.98;;;;;;;;;;10630943;27;20402;-83
2022/10/07 13:29:45;;;;;;;6.90;2.67;;;;;;;;;;10613490;27;20038;-83
2022/10/07 13:35:41;;;;;;;6.32;1.85;;;;;;;;;;10630005;27;20039;-83
2022/10/07 13:41:06;;;;;;;5.80;2.15;;;;;;;;;;10537504;27;20069;-84
2022/10/07 13:46:15;;;;;;;7.95;2.33;;;;;;;;;;10631750;27;20031;-83
2022/10/07 13:51:45;;;;;;;5.38;1.95;;;;;;;;;;10631353;27;20042;-83
2022/10/07 13:56:57;;;;;;;7.55;2.28;;;;;;;;;;10612574;28;20087;-83
2022/10/07 14:02:00;;;;;;;8.20;2.33;;;;;;;;;;10613945;28;20027;-83
2022/10/07 14:07:21;;;;;;;7.28;2.70;;;;;;;;;;10611495;28;20052;-84
2022/10/07 14:12:28;;;;;;;6.00;1.83;;;;;;;;;;10612364;28;20024;-83
2022/10/07 14:17:43;;;;;;;8.65;2.03;;;;;;;;;;10633396;27;20030;-83
2022/10/07 14:22:52;;;;;;;5.13;2.10;;;;;;;;;;10620976;27;20027;-83
2022/10/07 14:28:09;;;;;;;6.30;2.30;;;;;;;;;;10637927;27;20479;-84
2022/10/07 14:38:44;;;;;;;5.53;1.98;;;;;;;;;;10627062;27;20114;-83
2022/10/07 14:44:00;;;;;;;7.07;2.83;;;;;;;;;;10604355;27;20134;-82
2022/10/07 14:49:09;;;;;;;9.32;2.90;;;;;;;;;;10657574;27;20060;-82
2022/10/07 14:54:14;;;;;;;9.00;2.03;;;;;;;;;;10640748;27;20034;-82
2022/10/07 14:59:19;;;;;;;7.55;2.40;;;;;;;;;;10638641;27;20027;-82
2022/10/07 15:10:51;;;;;;;5.40;2.15;;;;;;;;;;10538103;28;20048;-82
2022/10/07 15:16:11;;;;;;;6.22;2.10;;;;;;;;;;10521940;28;20051;-85
2022/10/07 15:21:31;;;;;;;5.47;1.87;;;;;;;;;;10601856;27;20030;-83
2022/10/07 15:26:38;;;;;;;4.95;2.92;;;;;;;;;;10630118;27;20390;-84
2022/10/07 15:31:44;;;;;;;7.70;2.97;;;;;;;;;;10622336;27;20015;-83
2022/10/07 15:36:48;;;;;;;4.57;1.85;;;;;;;;;;10606600;27;20039;-83
2022/10/07 15:41:52;;;;;;;9.45;2.20;;;;;;;;;;10621953;27;20050;-84
2022/10/07 15:47:15;;;;;;;4.20;1.73;;;;;;;;;;10643628;27;20039;-84
2022/10/07 15:52:21;;;;;;;5.65;2.15;;;;;;;;;;10633838;27;20051;-84
2022/10/07 15:57:47;;;;;;;4.68;1.88;;;;;;;;;;10640064;27;20077;-85
2022/10/07 16:03:07;;;;;;;5.65;2.05;;;;;;;;;;10623000;27;20047;-87
2022/10/07 16:08:08;;;;;;;4.68;1.92;;;;;;;;;;10625289;27;20034;-82
2022/10/07 16:13:11;;;;;;;6.38;1.90;;;;;;;;;;10625665;27;20443;-85
2022/10/07 16:18:15;;;;;;;4.32;1.70;;;;;;;;;;10627150;27;20027;-84
2022/10/07 16:34:56;;;;;;;4.78;1.60;;;;;;;;;;10657042;27;20011;-85
2022/10/07 16:39:58;;;;;;;6.10;2.00;;;;;;;;;;10619898;27;20039;-85
2022/10/07 16:45:05;;;;;;;5.07;2.15;;;;;;;;;;10612540;27;20035;-86
2022/10/07 16:50:32;;;;;;;6.25;2.60;;;;;;;;;;10633106;27;20027;-84
2022/10/07 17:12:51;;;;;;;4.60;2.13;;;;;;;;;;10644043;27;20030;-84
2022/10/07 17:18:05;;;;;;;4.78;2.10;;;;;;;;;;10628261;27;20041;-84
2022/10/07 17:28:36;;;;;;;5.07;2.03;;;;;;;;;;10639051;27;20027;-85
2022/10/07 17:39:53;;;;;;;4.55;1.80;;;;;;;;;;10645629;27;20027;-87
2022/10/07 17:51:09;;;;;;;4.03;1.90;;;;;;;;;;10674658;27;20015;-85
2022/10/07 17:56:18;;;;;;;4.07;1.83;;;;;;;;;;10655771;27;20015;-85
2022/10/07 18:01:25;;;;;;;3.90;1.63;;;;;;;;;;10626338;28;20024;-85
2022/10/07 18:06:29;;;;;;;3.95;1.85;;;;;;;;;;10623499;28;20062;-85
2022/10/07 18:16:50;;;;;;;5.55;2.13;;;;;;;;;;10632742;28;20440;-87
2022/10/07 18:33:53;;;;;;;5.43;2.08;;;;;;;;;;10572543;28;20028;-81
